CDT,Max TemperatureF,Mean TemperatureF,Min TemperatureF,Max Dew PointF,MeanDew PointF,Min DewpointF,Max Humidity, Mean Humidity, Min Humidity, Max Sea Level PressureIn, Mean Sea Level PressureIn, Min Sea Level PressureIn, Max VisibilityMiles, Mean VisibilityMiles, Min VisibilityMiles, Max Wind SpeedMPH, Mean Wind SpeedMPH, Max Gust SpeedMPH,PrecipitationIn, CloudCover, Events, WindDirDegrees
2013-7-1,83,68,53,60,53,49,93,63,33,30.29,30.24,30.19,10,10,7,14,5,19,0.00,0,,122
2013-7-2,84,68,51,60,54,48,100,66,31,30.21,30.15,30.04,10,9,2,16,5,21,0.00,0,,137
2013-7-3,88,72,55,58,54,50,93,62,30,30.03,29.92,29.78,10,10,6,23,10,28,0.00,0,,125
2013-7-4,87,73,59,65,57,46,84,56,27,29.79,29.75,29.70,10,9,2,22,9,31,0.20,2,Rain-Thunderstorm,308
2013-7-5,87,72,56,65,60,55,93,67,40,29.82,29.78,29.73,10,7,2,24,7,32,T,2,Rain,184
2013-7-6,90,77,63,67,64,58,100,72,44,29.83,29.77,29.73,10,10,7,14,5,17,0.00,2,,17
2013-7-7,80,70,60,60,58,56,90,68,45,30.01,29.94,29.86,10,10,8,13,5,16,0.00,0,,245
2013-7-8,88,75,61,68,62,57,97,72,46,29.99,29.93,29.84,10,10,10,33,10,41,T,2,Rain-Thunderstorm,175
2013-7-9,82,70,57,65,60,54,93,68,43,30.13,29.99,29.84,10,10,2,28,10,45,0.18,3,Rain-Thunderstorm,304
2013-7-10,82,66,49,62,55,50,100,70,39,30.15,30.08,29.99,10,9,6,12,4,15,0.00,0,,197
2013-7-11,92,76,60,72,65,57,90,69,47,29.98,29.82,29.65,10,10,2,21,11,27,0.00,0,,139
2013-7-12,86,77,67,70,66,59,79,61,42,29.87,29.72,29.59,10,10,9,17,7,24,0.01,1,Rain,105
2013-7-13,92,77,61,67,62,59,100,67,34,29.97,29.92,29.85,10,10,9,26,8,32,T,0,Rain,111
2013-7-14,76,70,63,63,59,57,93,74,54,30.21,30.13,30.00,10,10,10,20,11,26,0.00,5,,15
2013-7-15,85,76,66,71,65,60,93,77,61,30.19,30.09,29.94,10,10,6,21,11,26,T,7,,114
2013-7-16,92,80,67,67,62,59,81,60,38,30.17,30.03,29.94,10,10,10,22,10,29,0.00,0,,129
2013-7-17,93,79,64,70,64,60,93,67,41,30.17,30.10,29.97,10,10,2,17,10,22,0.00,1,,89
2013-7-18,92,80,67,69,65,55,93,67,40,29.95,29.85,29.80,10,10,10,23,9,31,0.00,0,,312
2013-7-19,88,74,59,58,54,51,87,58,29,29.99,29.94,29.87,10,10,10,24,9,32,0.00,0,,305
2013-7-20,71,64,57,60,57,55,97,79,61,30.04,29.98,29.93,10,10,10,20,8,26,0.19,5,Rain-Thunderstorm,67
2013-7-21,89,72,55,67,61,54,93,66,39,29.96,29.78,29.60,10,8,0,31,10,39,0.67,4,Fog-Rain-Thunderstorm,113
2013-7-22,75,67,59,61,56,53,93,71,49,29.99,29.87,29.76,10,10,10,17,9,22,0.00,3,,347
2013-7-23,77,65,53,60,55,52,100,75,49,30.09,30.05,29.98,10,10,10,10,5,12,T,5,,81
2013-7-24,85,69,53,59,56,53,100,67,34,30.08,30.04,29.98,10,10,2,18,6,25,0.00,1,,321
2013-7-25,78,68,57,61,54,47,90,66,41,30.14,30.04,29.96,10,9,2,24,11,32,0.12,3,Rain-Thunderstorm,321
2013-7-26,71,61,50,51,46,39,96,65,34,30.31,30.25,30.16,10,10,10,17,10,21,0.00,3,,356
2013-7-27,72,56,39,47,42,38,100,66,31,30.28,30.20,30.08,10,10,2,15,4,21,0.00,0,,93
2013-7-28,77,61,44,48,44,42,93,62,31,30.09,30.03,29.96,10,10,10,17,9,22,0.00,0,,115
2013-7-29,74,65,55,61,53,46,73,63,53,30.02,29.96,29.93,10,10,9,21,10,25,T,4,,146
2013-7-30,74,62,50,62,57,49,100,77,53,30.17,30.10,30.04,10,8,2,22,5,29,0.12,1,Rain-Thunderstorm,222
2013-7-31,80,69,58,60,53,46,97,64,30,30.18,30.13,30.04,10,9,2,15,5,19,0.14,3,Rain-Thunderstorm,319